METAR Data
IDs: Format: Raw Decoded Include TAF

Data at: 0603 UTC 03 Jul 2022

KUKI 030556Z AUTO 34009KT 10SM OVC022 14/09 A2997 RMK AO2 SLP142 T01440094 10211 20144 53003

KUKI 030522Z 0306/0406 35008KT P6SM SCT015 BKN025
  FM031800 32008KT P6SM SCT015 BKN120
  FM040300 36006KT P6SM BKN050 BKN100